Time;durP1;ratioP1;P1;durP2;ratioP2;P2;SDS_P1;SDS_P2;PMS_P1;PMS_P2;Temp;Humidity;BMP_temperature;BMP_pressure;BME280_temperature;BME280_humidity;BME280_pressure;Samples;Min_cycle;Max_cycle;Signal;HPM_P1;HPM_P2
2022/07/25 00:02:02;;;;;;;11.40;4.88;;;;;;;;;;6129656;23;20018;-85
2022/07/25 00:04:35;;;;;;;5.45;4.03;;;;;;;;;;6130831;23;20033;-83
2022/07/25 00:07:04;;;;;;;6.97;4.80;;;;;;;;;;6129182;23;20064;-83
2022/07/25 00:09:37;;;;;;;8.30;4.88;;;;;;;;;;6154973;23;20487;-84
2022/07/25 00:12:05;;;;;;;8.45;4.88;;;;;;;;;;6153065;23;20022;-84
2022/07/25 00:14:33;;;;;;;6.00;4.30;;;;;;;;;;6154710;23;20594;-83
2022/07/25 00:17:01;;;;;;;6.30;4.72;;;;;;;;;;6154470;23;20022;-84
2022/07/25 00:19:28;;;;;;;6.20;5.10;;;;;;;;;;6154921;23;20018;-84
2022/07/25 00:21:58;;;;;;;8.43;5.03;;;;;;;;;;6156158;23;20022;-84
2022/07/25 00:24:26;;;;;;;8.45;5.43;;;;;;;;;;6154441;23;20543;-83
2022/07/25 00:26:56;;;;;;;8.43;5.97;;;;;;;;;;6155039;23;20293;-83
2022/07/25 00:29:24;;;;;;;6.85;4.97;;;;;;;;;;6157176;23;20108;-83
2022/07/25 00:31:51;;;;;;;9.95;6.55;;;;;;;;;;6155295;23;20054;-84
2022/07/25 00:34:21;;;;;;;8.57;6.63;;;;;;;;;;6155977;23;20113;-83
2022/07/25 00:36:48;;;;;;;10.75;6.32;;;;;;;;;;6155410;23;20368;-83
2022/07/25 00:39:19;;;;;;;8.90;6.43;;;;;;;;;;6155478;23;20025;-84
2022/07/25 00:41:50;;;;;;;10.70;6.22;;;;;;;;;;6155564;23;20034;-84
2022/07/25 00:44:29;;;;;;;8.25;6.03;;;;;;;;;;6157734;23;20519;-84
2022/07/25 00:46:57;;;;;;;9.25;6.03;;;;;;;;;;6155201;23;20014;-83
2022/07/25 00:49:25;;;;;;;8.63;6.13;;;;;;;;;;6155048;23;20015;-84
2022/07/25 00:51:53;;;;;;;8.60;6.45;;;;;;;;;;6155686;23;20077;-83
2022/07/25 00:54:22;;;;;;;13.85;6.45;;;;;;;;;;6156883;23;20081;-83
2022/07/25 00:56:50;;;;;;;8.05;5.70;;;;;;;;;;6154452;23;20018;-83
2022/07/25 00:59:20;;;;;;;11.18;6.20;;;;;;;;;;6155807;23;20348;-83
2022/07/25 01:01:53;;;;;;;10.77;7.18;;;;;;;;;;6155438;23;20026;-84
2022/07/25 01:04:23;;;;;;;9.98;6.60;;;;;;;;;;6156113;23;20101;-84
2022/07/25 01:06:55;;;;;;;10.98;7.43;;;;;;;;;;6155296;23;20097;-83
2022/07/25 01:09:23;;;;;;;15.77;7.25;;;;;;;;;;6131209;23;20018;-83
2022/07/25 01:11:55;;;;;;;12.73;8.07;;;;;;;;;;6131135;23;20170;-83
2022/07/25 01:14:29;;;;;;;14.30;7.57;;;;;;;;;;6131351;23;20866;-84
2022/07/25 01:16:58;;;;;;;16.17;7.50;;;;;;;;;;6131247;23;20022;-84
2022/07/25 01:19:28;;;;;;;9.73;6.68;;;;;;;;;;6131478;23;20024;-85
2022/07/25 01:21:55;;;;;;;12.40;8.13;;;;;;;;;;6130597;23;20029;-83
2022/07/25 01:24:23;;;;;;;13.55;7.97;;;;;;;;;;6131535;23;20026;-84
2022/07/25 01:26:51;;;;;;;13.52;7.65;;;;;;;;;;6131176;23;20513;-83
2022/07/25 01:29:21;;;;;;;11.07;7.93;;;;;;;;;;6130822;23;20026;-83
2022/07/25 01:31:48;;;;;;;9.43;6.97;;;;;;;;;;6130251;23;20024;-84
2022/07/25 01:34:18;;;;;;;12.32;7.47;;;;;;;;;;6157349;23;20045;-84
2022/07/25 01:36:46;;;;;;;13.85;7.38;;;;;;;;;;6129520;23;20667;-85
2022/07/25 01:39:14;;;;;;;11.48;7.90;;;;;;;;;;6129625;23;20385;-83
2022/07/25 01:41:46;;;;;;;11.85;8.13;;;;;;;;;;6131315;23;20325;-84
2022/07/25 01:44:16;;;;;;;9.77;7.50;;;;;;;;;;6130732;23;20416;-84
2022/07/25 01:46:43;;;;;;;12.50;8.05;;;;;;;;;;6130358;23;20345;-83
2022/07/25 01:49:13;;;;;;;11.57;7.85;;;;;;;;;;6131395;23;20053;-84
2022/07/25 01:51:41;;;;;;;11.82;7.35;;;;;;;;;;6131407;23;20022;-83
2022/07/25 01:54:13;;;;;;;12.15;7.75;;;;;;;;;;6130376;23;20029;-84
2022/07/25 01:56:43;;;;;;;10.32;7.13;;;;;;;;;;6130845;23;20058;-84
2022/07/25 01:59:16;;;;;;;11.70;8.05;;;;;;;;;;6132218;23;20021;-84
2022/07/25 02:01:44;;;;;;;9.68;7.07;;;;;;;;;;6131399;23;20032;-83
2022/07/25 02:04:14;;;;;;;9.40;6.40;;;;;;;;;;6129827;23;20126;-83
2022/07/25 02:06:42;;;;;;;10.32;6.90;;;;;;;;;;6130442;23;20026;-83
2022/07/25 02:09:09;;;;;;;8.02;6.68;;;;;;;;;;6130369;23;20025;-84
2022/07/25 02:11:37;;;;;;;8.55;6.85;;;;;;;;;;6130386;23;20359;-83
2022/07/25 02:14:13;;;;;;;8.70;7.00;;;;;;;;;;6131822;23;20028;-84
2022/07/25 02:16:41;;;;;;;9.55;6.63;;;;;;;;;;6131214;23;20056;-83
2022/07/25 02:19:08;;;;;;;9.70;7.05;;;;;;;;;;6130977;23;20073;-85
2022/07/25 02:21:36;;;;;;;11.88;7.07;;;;;;;;;;6130586;23;20073;-83
2022/07/25 02:24:03;;;;;;;11.02;6.95;;;;;;;;;;6130873;23;20546;-83
2022/07/25 02:26:36;;;;;;;9.10;6.82;;;;;;;;;;6131199;23;20022;-84
2022/07/25 02:29:04;;;;;;;9.70;7.38;;;;;;;;;;6130002;23;20022;-83
2022/07/25 02:31:34;;;;;;;10.32;6.18;;;;;;;;;;6130430;23;20077;-83
2022/07/25 02:34:03;;;;;;;8.63;6.63;;;;;;;;;;6130945;23;20059;-83
2022/07/25 02:36:34;;;;;;;10.05;6.90;;;;;;;;;;6130560;23;20022;-84
2022/07/25 02:39:01;;;;;;;13.93;7.35;;;;;;;;;;6130643;23;20033;-83
2022/07/25 02:41:29;;;;;;;9.65;7.15;;;;;;;;;;6129961;23;20018;-84
2022/07/25 02:43:56;;;;;;;11.20;6.85;;;;;;;;;;6130292;23;20030;-83
2022/07/25 02:46:27;;;;;;;10.15;7.30;;;;;;;;;;6131333;23;20464;-83
2022/07/25 02:48:56;;;;;;;10.97;7.20;;;;;;;;;;6130752;23;20097;-84
2022/07/25 02:51:26;;;;;;;11.60;8.18;;;;;;;;;;6130621;23;20048;-83
2022/07/25 02:53:56;;;;;;;11.57;7.53;;;;;;;;;;6130720;23;20026;-83
2022/07/25 02:56:26;;;;;;;;;;;;;;;;;;6132468;23;20101;-83
2022/07/25 02:58:56;;;;;;;11.32;7.00;;;;;;;;;;6153618;23;44723;-84
2022/07/25 03:01:23;;;;;;;11.75;8.38;;;;;;;;;;6129702;23;20053;-83
2022/07/25 03:03:51;;;;;;;11.93;7.63;;;;;;;;;;6130794;23;20022;-84
2022/07/25 03:06:19;;;;;;;11.65;8.40;;;;;;;;;;6129369;23;20056;-83
2022/07/25 03:08:46;;;;;;;14.07;8.20;;;;;;;;;;6130658;23;20739;-84
2022/07/25 03:11:15;;;;;;;15.32;9.23;;;;;;;;;;6130468;23;20014;-84
2022/07/25 03:13:42;;;;;;;11.80;8.77;;;;;;;;;;6131321;23;20018;-84
2022/07/25 03:16:12;;;;;;;12.95;9.35;;;;;;;;;;6130682;23;20030;-84
2022/07/25 03:18:40;;;;;;;14.95;8.57;;;;;;;;;;6129980;23;20018;-84
2022/07/25 03:21:09;;;;;;;15.88;9.65;;;;;;;;;;6130527;23;20021;-83
2022/07/25 03:23:37;;;;;;;15.23;9.98;;;;;;;;;;6130337;23;20835;-83
2022/07/25 03:26:18;;;;;;;15.30;9.90;;;;;;;;;;6133111;23;20018;-83
2022/07/25 03:28:48;;;;;;;14.73;10.23;;;;;;;;;;6130552;23;20018;-84
2022/07/25 03:31:15;;;;;;;14.80;9.23;;;;;;;;;;6131056;23;20022;-84
2022/07/25 03:33:43;;;;;;;14.65;10.68;;;;;;;;;;6156841;23;20026;-83
2022/07/25 03:36:12;;;;;;;12.27;10.05;;;;;;;;;;6129842;23;20022;-85
2022/07/25 03:38:40;;;;;;;13.60;10.13;;;;;;;;;;6129820;23;20109;-83
2022/07/25 03:41:10;;;;;;;13.05;10.52;;;;;;;;;;6130306;23;20806;-83
2022/07/25 03:43:37;;;;;;;15.98;9.98;;;;;;;;;;6130389;23;20484;-85
2022/07/25 03:46:07;;;;;;;17.95;11.02;;;;;;;;;;6129593;23;20032;-84
2022/07/25 03:48:35;;;;;;;13.70;10.35;;;;;;;;;;6129216;23;20046;-83
2022/07/25 03:51:05;;;;;;;18.23;11.55;;;;;;;;;;6128205;23;20128;-84
2022/07/25 03:54:00;;;;;;;14.85;10.90;;;;;;;;;;6129357;23;20537;-85
2022/07/25 03:56:28;;;;;;;15.82;11.15;;;;;;;;;;6155712;23;20858;-83
2022/07/25 03:58:55;;;;;;;15.60;10.48;;;;;;;;;;6129131;23;20022;-84
2022/07/25 04:01:26;;;;;;;19.92;11.20;;;;;;;;;;6129203;23;20045;-83
2022/07/25 04:04:00;;;;;;;15.02;11.30;;;;;;;;;;6131940;23;20033;-83
2022/07/25 04:06:31;;;;;;;17.23;11.30;;;;;;;;;;6130639;23;20221;-83
2022/07/25 04:08:58;;;;;;;16.00;10.48;;;;;;;;;;6130173;23;20018;-84
2022/07/25 04:11:27;;;;;;;15.27;11.45;;;;;;;;;;6132491;23;20452;-83
2022/07/25 04:14:00;;;;;;;15.18;11.40;;;;;;;;;;6134265;23;20383;-84
2022/07/25 04:16:37;;;;;;;17.25;11.32;;;;;;;;;;6134366;23;20028;-84
2022/07/25 04:19:05;;;;;;;14.75;10.73;;;;;;;;;;6132233;23;20030;-83
2022/07/25 04:21:34;;;;;;;16.42;10.27;;;;;;;;;;6131890;23;20022;-83
2022/07/25 04:24:06;;;;;;;15.45;10.25;;;;;;;;;;6131690;23;20018;-84
2022/07/25 04:26:37;;;;;;;16.60;10.07;;;;;;;;;;6133109;23;20018;-84
2022/07/25 04:29:05;;;;;;;16.98;10.32;;;;;;;;;;6133888;23;20913;-83
2022/07/25 04:31:33;;;;;;;19.00;10.45;;;;;;;;;;6133564;23;20026;-84
2022/07/25 04:34:00;;;;;;;14.90;10.35;;;;;;;;;;6130884;23;20026;-84
2022/07/25 04:36:30;;;;;;;14.98;9.70;;;;;;;;;;6130801;23;20030;-85
2022/07/25 04:39:05;;;;;;;14.30;10.07;;;;;;;;;;6130262;23;20018;-84
2022/07/25 04:41:33;;;;;;;14.70;9.38;;;;;;;;;;6127509;23;20105;-83
2022/07/25 04:44:00;;;;;;;12.35;9.10;;;;;;;;;;6130675;23;20911;-84
2022/07/25 04:46:29;;;;;;;13.70;8.70;;;;;;;;;;6131126;23;20100;-83
2022/07/25 04:49:00;;;;;;;10.88;8.80;;;;;;;;;;6131912;23;20037;-84
2022/07/25 04:51:29;;;;;;;12.05;9.07;;;;;;;;;;6130002;23;20022;-84
2022/07/25 04:54:03;;;;;;;15.60;9.07;;;;;;;;;;6131366;23;20030;-83
2022/07/25 04:56:34;;;;;;;14.85;7.85;;;;;;;;;;6131394;23;20214;-84
2022/07/25 04:59:04;;;;;;;12.80;7.97;;;;;;;;;;6131280;23;20018;-83
2022/07/25 05:01:33;;;;;;;11.70;7.40;;;;;;;;;;6131459;23;20022;-83
2022/07/25 05:04:00;;;;;;;10.20;7.65;;;;;;;;;;6130098;23;20032;-83
2022/07/25 05:06:28;;;;;;;9.93;7.30;;;;;;;;;;6131290;23;20101;-84
2022/07/25 05:08:56;;;;;;;14.30;7.75;;;;;;;;;;6131041;23;20033;-84
2022/07/25 05:11:23;;;;;;;13.38;7.90;;;;;;;;;;6130085;23;20018;-84
2022/07/25 05:13:51;;;;;;;9.98;7.68;;;;;;;;;;6129113;23;20018;-84
2022/07/25 05:16:29;;;;;;;10.80;7.45;;;;;;;;;;6130819;23;20021;-83
2022/07/25 05:18:59;;;;;;;9.70;7.07;;;;;;;;;;6130474;23;20097;-85
2022/07/25 05:21:28;;;;;;;12.50;7.95;;;;;;;;;;6131046;23;20096;-84
2022/07/25 05:23:56;;;;;;;11.70;7.45;;;;;;;;;;6128958;23;20101;-83
2022/07/25 05:26:24;;;;;;;15.75;7.70;;;;;;;;;;6130667;23;20025;-83
2022/07/25 05:28:54;;;;;;;12.48;7.57;;;;;;;;;;6130738;23;20037;-84
2022/07/25 05:31:24;;;;;;;12.90;7.30;;;;;;;;;;6129985;23;20018;-84
2022/07/25 05:33:56;;;;;;;11.48;7.78;;;;;;;;;;6130852;23;20042;-83
2022/07/25 05:36:41;;;;;;;;;;;;;;;;;;;;;
2022/07/25 05:39:40;;;;;;;13.00;7.55;;;;;;;;;;6158159;23;20423;-84
2022/07/25 05:42:19;;;;;;;13.50;7.47;;;;;;;;;;6133569;23;20097;-83
2022/07/25 05:44:53;;;;;;;11.23;6.93;;;;;;;;;;6131693;23;20033;-85
2022/07/25 05:47:21;;;;;;;12.93;7.70;;;;;;;;;;6130743;23;20728;-84
2022/07/25 05:49:48;;;;;;;13.25;7.60;;;;;;;;;;6156686;23;20724;-84
2022/07/25 05:52:16;;;;;;;12.63;8.23;;;;;;;;;;6130297;23;20882;-84
2022/07/25 05:54:43;;;;;;;15.45;7.32;;;;;;;;;;6131796;23;20109;-83
2022/07/25 05:57:13;;;;;;;12.35;7.30;;;;;;;;;;6130941;23;20018;-84
2022/07/25 05:59:45;;;;;;;11.13;7.00;;;;;;;;;;6131519;23;20515;-84
2022/07/25 06:02:14;;;;;;;11.30;7.22;;;;;;;;;;6131485;23;20443;-84
2022/07/25 06:04:42;;;;;;;15.73;7.47;;;;;;;;;;6131625;23;20105;-84
2022/07/25 06:07:10;;;;;;;11.35;7.40;;;;;;;;;;6132467;23;20098;-84
2022/07/25 06:09:43;;;;;;;10.23;8.02;;;;;;;;;;6134872;23;20029;-84
2022/07/25 06:12:12;;;;;;;10.85;8.00;;;;;;;;;;6134044;23;20025;-84
2022/07/25 06:14:43;;;;;;;10.48;7.35;;;;;;;;;;6133689;23;20077;-83
2022/07/25 06:17:15;;;;;;;12.88;8.07;;;;;;;;;;6133004;23;20037;-84
2022/07/25 06:19:43;;;;;;;9.82;7.60;;;;;;;;;;6132442;23;20018;-82
2022/07/25 06:22:10;;;;;;;12.40;8.25;;;;;;;;;;6128130;23;20044;-84
2022/07/25 06:24:40;;;;;;;12.48;8.38;;;;;;;;;;6131214;23;20049;-83
2022/07/25 06:27:08;;;;;;;15.35;8.18;;;;;;;;;;6131920;23;20076;-83
2022/07/25 06:29:35;;;;;;;12.23;8.20;;;;;;;;;;6132328;23;20045;-84
2022/07/25 06:32:06;;;;;;;12.93;7.72;;;;;;;;;;6132137;23;20773;-84
2022/07/25 06:34:36;;;;;;;11.02;6.60;;;;;;;;;;6129313;23;20022;-83
2022/07/25 06:37:07;;;;;;;13.27;6.70;;;;;;;;;;6130271;23;20802;-83
2022/07/25 06:39:34;;;;;;;8.75;5.78;;;;;;;;;;6129712;23;20583;-83
2022/07/25 06:42:12;;;;;;;8.07;5.35;;;;;;;;;;6133201;23;20486;-84
2022/07/25 06:44:40;;;;;;;7.45;5.22;;;;;;;;;;6131289;23;20022;-84
2022/07/25 06:47:11;;;;;;;11.43;5.65;;;;;;;;;;6129970;23;20097;-84
2022/07/25 06:49:42;;;;;;;10.98;5.00;;;;;;;;;;6131451;23;20479;-83
2022/07/25 06:52:10;;;;;;;6.75;4.78;;;;;;;;;;6128185;23;20097;-82
2022/07/25 06:54:47;;;;;;;7.30;5.00;;;;;;;;;;6130966;23;20387;-84
2022/07/25 06:57:19;;;;;;;8.50;4.95;;;;;;;;;;6129725;23;20014;-85
2022/07/25 06:59:46;;;;;;;11.05;5.22;;;;;;;;;;6128554;23;20068;-83
2022/07/25 07:02:18;;;;;;;8.65;5.03;;;;;;;;;;6128931;23;20467;-85
2022/07/25 07:04:49;;;;;;;8.40;4.43;;;;;;;;;;6129898;23;20109;-84
2022/07/25 07:07:17;;;;;;;8.77;4.32;;;;;;;;;;6126581;23;20097;-83
2022/07/25 07:09:51;;;;;;;5.82;3.70;;;;;;;;;;6130871;23;20850;-84
2022/07/25 07:12:21;;;;;;;7.18;2.90;;;;;;;;;;6130090;23;20694;-83
2022/07/25 07:14:55;;;;;;;4.45;2.80;;;;;;;;;;6131954;23;20022;-83
2022/07/25 07:17:23;;;;;;;5.68;2.78;;;;;;;;;;6128769;23;20022;-84
2022/07/25 07:20:01;;;;;;;4.00;2.60;;;;;;;;;;6131027;23;20021;-84
2022/07/25 07:22:32;;;;;;;5.90;2.70;;;;;;;;;;6131605;23;20097;-83
2022/07/25 07:25:09;;;;;;;5.45;2.80;;;;;;;;;;6131640;23;20081;-84
2022/07/25 07:27:39;;;;;;;4.38;2.40;;;;;;;;;;6129871;23;20073;-84
2022/07/25 07:30:17;;;;;;;8.00;2.53;;;;;;;;;;6130399;23;20022;-84
2022/07/25 07:32:53;;;;;;;5.10;2.45;;;;;;;;;;6132781;23;20025;-83
2022/07/25 07:35:24;;;;;;;3.78;2.22;;;;;;;;;;6131080;23;20026;-85
2022/07/25 07:37:53;;;;;;;4.82;2.20;;;;;;;;;;6131958;23;20017;-84
2022/07/25 07:40:22;;;;;;;3.85;2.00;;;;;;;;;;6132472;23;20018;-83
2022/07/25 07:42:55;;;;;;;6.03;2.15;;;;;;;;;;6132886;23;20078;-83
2022/07/25 07:45:25;;;;;;;3.13;1.95;;;;;;;;;;6131967;23;20025;-83
2022/07/25 07:47:53;;;;;;;3.58;1.80;;;;;;;;;;6132123;23;20061;-84
2022/07/25 07:50:24;;;;;;;3.53;2.13;;;;;;;;;;6131580;23;20768;-84
2022/07/25 07:52:53;;;;;;;8.38;1.80;;;;;;;;;;6131329;23;20030;-84
2022/07/25 07:58:11;;;;;;;3.05;1.40;;;;;;;;;;6157315;23;20021;-84
2022/07/25 08:00:39;;;;;;;3.10;1.55;;;;;;;;;;6131437;23;20460;-84
2022/07/25 08:03:11;;;;;;;4.18;1.70;;;;;;;;;;6131058;23;20104;-84
2022/07/25 08:05:43;;;;;;;2.08;1.58;;;;;;;;;;6132642;23;20025;-84
2022/07/25 08:08:13;;;;;;;2.20;1.50;;;;;;;;;;6131036;23;20750;-85
2022/07/25 08:10:42;;;;;;;5.40;1.42;;;;;;;;;;6131440;23;20042;-84
2022/07/25 08:13:16;;;;;;;2.58;1.40;;;;;;;;;;6133265;23;20096;-84
2022/07/25 08:15:47;;;;;;;3.47;1.80;;;;;;;;;;6131089;23;20022;-83
2022/07/25 08:18:20;;;;;;;4.32;2.05;;;;;;;;;;6132732;23;20022;-84
2022/07/25 08:20:48;;;;;;;7.07;1.70;;;;;;;;;;6131540;23;20073;-83
2022/07/25 08:23:18;;;;;;;3.47;1.40;;;;;;;;;;6131548;23;20018;-84
2022/07/25 08:26:01;;;;;;;2.22;1.00;;;;;;;;;;6133805;23;20727;-83
2022/07/25 08:28:31;;;;;;;4.22;1.10;;;;;;;;;;6130028;23;20114;-83
2022/07/25 08:31:06;;;;;;;2.10;1.20;;;;;;;;;;6132281;23;20020;-84
2022/07/25 08:33:38;;;;;;;2.65;1.15;;;;;;;;;;6131556;23;20025;-84
2022/07/25 08:36:11;;;;;;;3.28;1.35;;;;;;;;;;6132438;23;20100;-83
2022/07/25 08:38:43;;;;;;;3.53;1.40;;;;;;;;;;6130766;23;20022;-84
2022/07/25 08:41:12;;;;;;;7.80;1.50;;;;;;;;;;6131067;23;20018;-84
2022/07/25 08:43:40;;;;;;;3.65;1.08;;;;;;;;;;6130726;23;20441;-84
2022/07/25 08:46:17;;;;;;;5.28;1.50;;;;;;;;;;6132071;23;20133;-84
2022/07/25 08:48:51;;;;;;;8.98;1.23;;;;;;;;;;6131359;23;20056;-84
2022/07/25 08:51:18;;;;;;;3.90;1.35;;;;;;;;;;6130819;23;20014;-84
2022/07/25 08:53:47;;;;;;;10.98;1.60;;;;;;;;;;6130364;23;20039;-84
2022/07/25 08:56:15;;;;;;;7.22;1.25;;;;;;;;;;6130454;23;20022;-85
2022/07/25 08:58:50;;;;;;;9.93;2.00;;;;;;;;;;6131821;23;20817;-84
2022/07/25 09:01:18;;;;;;;4.68;1.23;;;;;;;;;;6129594;23;20065;-84
2022/07/25 09:03:49;;;;;;;3.17;1.48;;;;;;;;;;6130383;23;20022;-84
2022/07/25 09:06:18;;;;;;;5.43;1.45;;;;;;;;;;6133728;23;20026;-84
2022/07/25 09:08:55;;;;;;;2.85;1.42;;;;;;;;;;6160313;23;20893;-85
2022/07/25 09:11:40;;;;;;;2.53;1.30;;;;;;;;;;6160301;23;20550;-85
2022/07/25 09:14:12;;;;;;;5.22;1.48;;;;;;;;;;6160700;23;20433;-84
2022/07/25 09:16:42;;;;;;;5.95;1.55;;;;;;;;;;6160502;23;20022;-83
2022/07/25 09:19:17;;;;;;;4.63;1.50;;;;;;;;;;6159435;23;20029;-84
2022/07/25 09:21:57;;;;;;;2.92;1.40;;;;;;;;;;6160563;23;20094;-84
2022/07/25 09:24:36;;;;;;;7.80;2.22;;;;;;;;;;6162579;23;20932;-84
2022/07/25 09:27:10;;;;;;;4.05;1.52;;;;;;;;;;6158980;23;20022;-84
2022/07/25 09:29:41;;;;;;;3.70;1.45;;;;;;;;;;6159692;23;20116;-84
2022/07/25 09:32:38;;;;;;;4.13;1.55;;;;;;;;;;6158841;23;20018;-84
2022/07/25 09:35:29;;;;;;;3.00;1.45;;;;;;;;;;6152720;23;20897;-84
2022/07/25 09:38:07;;;;;;;5.45;1.48;;;;;;;;;;6160841;23;20766;-84
2022/07/25 09:40:40;;;;;;;5.93;2.05;;;;;;;;;;6158433;23;20017;-83
2022/07/25 09:43:10;;;;;;;5.80;1.70;;;;;;;;;;6160252;23;20028;-83
2022/07/25 09:45:47;;;;;;;6.60;1.55;;;;;;;;;;6158188;23;20104;-83
2022/07/25 09:48:19;;;;;;;4.38;1.60;;;;;;;;;;6160456;23;20029;-84
2022/07/25 09:50:49;;;;;;;8.32;2.17;;;;;;;;;;6160272;23;20014;-83
2022/07/25 09:53:28;;;;;;;4.15;1.50;;;;;;;;;;6161997;23;20041;-84
2022/07/25 09:55:58;;;;;;;5.10;1.90;;;;;;;;;;6160193;23;20139;-84
2022/07/25 09:58:34;;;;;;;6.40;1.65;;;;;;;;;;6159401;23;20576;-84
2022/07/25 10:01:04;;;;;;;4.75;1.70;;;;;;;;;;6160120;23;20794;-83
2022/07/25 10:03:46;;;;;;;4.85;1.50;;;;;;;;;;6158935;23;20431;-84
2022/07/25 10:06:22;;;;;;;6.15;1.40;;;;;;;;;;6159762;23;20030;-84
2022/07/25 10:08:52;;;;;;;6.88;2.10;;;;;;;;;;6160150;23;20026;-84
2022/07/25 10:11:25;;;;;;;5.30;1.70;;;;;;;;;;6159536;23;20052;-86
2022/07/25 10:13:56;;;;;;;4.78;1.83;;;;;;;;;;6160625;23;20045;-84
2022/07/25 10:16:39;;;;;;;4.47;1.70;;;;;;;;;;6161616;23;20025;-84
2022/07/25 10:19:10;;;;;;;6.18;1.70;;;;;;;;;;6160652;23;20845;-84
2022/07/25 10:21:37;;;;;;;6.47;1.98;;;;;;;;;;6159933;23;20504;-85
2022/07/25 10:24:12;;;;;;;4.20;1.85;;;;;;;;;;6158799;23;20028;-84
2022/07/25 10:26:50;;;;;;;6.70;1.73;;;;;;;;;;6154868;23;20743;-84
2022/07/25 10:29:18;;;;;;;7.18;2.03;;;;;;;;;;6157078;23;20049;-84
2022/07/25 10:31:48;;;;;;;7.72;1.80;;;;;;;;;;6156196;23;20013;-84
2022/07/25 10:34:28;;;;;;;5.82;1.77;;;;;;;;;;6157709;23;20379;-84
2022/07/25 10:37:08;;;;;;;7.07;1.90;;;;;;;;;;6154919;23;20108;-84
2022/07/25 10:39:44;;;;;;;5.10;1.70;;;;;;;;;;6157359;23;20024;-83
2022/07/25 10:42:22;;;;;;;6.57;1.88;;;;;;;;;;6157423;23;20151;-84
2022/07/25 10:44:53;;;;;;;5.90;2.00;;;;;;;;;;6154353;23;20017;-85
2022/07/25 10:47:24;;;;;;;;;;;;;;;;;;6156561;23;20025;-84
2022/07/25 10:49:59;;;;;;;6.03;1.98;;;;;;;;;;6180624;23;45830;-84
2022/07/25 10:52:57;;;;;;;10.07;2.20;;;;;;;;;;6159596;23;20021;-84
2022/07/25 10:55:29;;;;;;;9.00;2.05;;;;;;;;;;6154216;23;20017;-84
2022/07/25 10:58:10;;;;;;;7.38;1.60;;;;;;;;;;6155272;23;20017;-84
2022/07/25 11:00:44;;;;;;;6.40;1.70;;;;;;;;;;6155056;23;20101;-84
2022/07/25 11:03:17;;;;;;;5.78;1.65;;;;;;;;;;6154308;23;20738;-84
2022/07/25 11:05:54;;;;;;;6.43;1.67;;;;;;;;;;6155196;23;20018;-85
2022/07/25 11:08:30;;;;;;;7.30;1.90;;;;;;;;;;6153948;23;20024;-84
2022/07/25 11:10:57;;;;;;;4.65;1.67;;;;;;;;;;6155080;23;20790;-84
2022/07/25 11:13:27;;;;;;;6.70;1.60;;;;;;;;;;6156534;23;20014;-84
2022/07/25 11:16:01;;;;;;;7.25;1.70;;;;;;;;;;6155399;23;20105;-84
2022/07/25 11:18:39;;;;;;;6.30;1.75;;;;;;;;;;6158466;23;20041;-85
2022/07/25 11:21:12;;;;;;;6.07;2.00;;;;;;;;;;6154693;23;20033;-83
2022/07/25 11:23:42;;;;;;;8.70;1.80;;;;;;;;;;6156135;23;20470;-84
2022/07/25 11:26:20;;;;;;;6.47;1.92;;;;;;;;;;6159659;23;20026;-84
2022/07/25 11:31:44;;;;;;;;;;;;;;;;;;6171335;23;21032;-84
2022/07/25 11:34:13;;;;;;;9.55;2.05;;;;;;;;;;6177513;23;44724;-84
2022/07/25 11:36:45;;;;;;;11.17;2.40;;;;;;;;;;6156648;23;20021;-84
2022/07/25 11:39:16;;;;;;;9.93;1.88;;;;;;;;;;6162171;23;20026;-84
2022/07/25 11:41:45;;;;;;;10.52;1.98;;;;;;;;;;6160863;23;20084;-84
2022/07/25 11:44:36;;;;;;;7.78;2.08;;;;;;;;;;6160383;23;20798;-83
2022/07/25 11:47:27;;;;;;;7.68;1.88;;;;;;;;;;6157762;23;20021;-84
2022/07/25 11:49:56;;;;;;;6.70;1.73;;;;;;;;;;6153153;23;20367;-84
2022/07/25 11:52:30;;;;;;;11.98;2.17;;;;;;;;;;6152110;23;20097;-85
2022/07/25 11:54:57;;;;;;;10.23;2.30;;;;;;;;;;6154095;23;20403;-83
2022/07/25 11:57:33;;;;;;;8.38;2.72;;;;;;;;;;6155184;23;20029;-84
2022/07/25 12:00:16;;;;;;;;;;;;;;;;;;;;;
2022/07/25 12:02:52;;;;;;;9.60;2.13;;;;;;;;;;6182188;23;20053;-84
2022/07/25 12:05:22;;;;;;;11.38;2.65;;;;;;;;;;6153850;23;20806;-84
2022/07/25 12:08:07;;;;;;;10.50;2.42;;;;;;;;;;6146658;23;20050;-85
2022/07/25 12:10:50;;;;;;;8.63;2.03;;;;;;;;;;6124955;23;20022;-84
2022/07/25 12:13:23;;;;;;;7.97;1.80;;;;;;;;;;6130479;23;20030;-85
2022/07/25 12:15:55;;;;;;;7.80;2.00;;;;;;;;;;6126176;23;20018;-84
2022/07/25 12:18:29;;;;;;;8.98;2.47;;;;;;;;;;6124782;23;20574;-84
2022/07/25 12:21:06;;;;;;;7.00;2.30;;;;;;;;;;6124934;23;20471;-83
2022/07/25 12:23:42;;;;;;;8.60;2.35;;;;;;;;;;6126820;23;20823;-83
2022/07/25 12:26:13;;;;;;;10.65;2.30;;;;;;;;;;6154385;23;20877;-86
2022/07/25 12:28:44;;;;;;;8.23;2.47;;;;;;;;;;6125454;23;20025;-84
2022/07/25 12:31:18;;;;;;;10.57;2.40;;;;;;;;;;6126606;23;20756;-83
2022/07/25 12:34:03;;;;;;;10.35;2.67;;;;;;;;;;6128534;23;20036;-83
2022/07/25 12:36:33;;;;;;;13.10;2.47;;;;;;;;;;6127906;23;20042;-84
2022/07/25 12:39:04;;;;;;;;;;;;;;;;;;6128128;23;20476;-84
2022/07/25 12:41:32;;;;;;;9.40;2.30;;;;;;;;;;6150797;23;45310;-83
2022/07/25 12:44:05;;;;;;;10.18;1.98;;;;;;;;;;6125481;23;20140;-84
2022/07/25 12:46:40;;;;;;;8.95;2.38;;;;;;;;;;6124025;23;20030;-84
2022/07/25 12:49:19;;;;;;;8.73;2.08;;;;;;;;;;6125772;23;20033;-83
2022/07/25 12:51:50;;;;;;;7.72;2.22;;;;;;;;;;6125964;23;20830;-85
2022/07/25 12:54:24;;;;;;;7.63;2.25;;;;;;;;;;6127541;23;20563;-84
2022/07/25 12:56:51;;;;;;;7.30;2.08;;;;;;;;;;6126858;23;20510;-84
2022/07/25 12:59:22;;;;;;;8.75;2.03;;;;;;;;;;6126210;23;20026;-84
2022/07/25 13:01:56;;;;;;;10.30;2.08;;;;;;;;;;6128122;23;20657;-84
2022/07/25 13:04:27;;;;;;;14.80;1.90;;;;;;;;;;6124901;23;20081;-85
2022/07/25 13:07:19;;;;;;;8.32;1.60;;;;;;;;;;6127681;23;20026;-84
2022/07/25 13:10:21;;;;;;;15.18;2.10;;;;;;;;;;6148942;23;20022;-87
2022/07/25 13:16:26;;;;;;;;;;;;;;;;;;;;;
2022/07/25 13:19:07;;;;;;;8.07;1.80;;;;;;;;;;6154575;23;20521;-86
2022/07/25 13:24:39;;;;;;;5.05;1.70;;;;;;;;;;6151435;23;20030;-85
2022/07/25 13:27:07;;;;;;;7.40;2.03;;;;;;;;;;6152954;23;20113;-84
2022/07/25 13:29:47;;;;;;;;;;;;;;;;;;;;;
2022/07/25 13:32:20;;;;;;;13.05;1.95;;;;;;;;;;6156499;23;20014;-85
2022/07/25 13:34:51;;;;;;;;;;;;;;;;;;6156360;23;20793;-85
2022/07/25 13:38:00;;;;;;;10.55;2.10;;;;;;;;;;6045974;23;20427;-86
2022/07/25 13:40:44;;;;;;;;;;;;;;;;;;;;;
2022/07/25 13:43:51;;;;;;;8.13;2.35;;;;;;;;;;6065397;23;20020;-86
2022/07/25 13:46:34;;;;;;;10.48;2.65;;;;;;;;;;5899166;24;20034;-87
2022/07/25 13:49:35;;;;;;;11.18;2.22;;;;;;;;;;5885494;24;20075;-86
2022/07/25 13:56:26;;;;;;;11.68;2.55;;;;;;;;;;5816277;24;20031;-86
2022/07/25 13:58:57;;;;;;;11.73;2.38;;;;;;;;;;5771073;24;20458;-86
2022/07/25 14:15:32;;;;;;;;;;;;;;;;;;5789861;24;20036;-85
2022/07/25 14:18:15;;;;;;;;;;;;;;;;;;;;;
2022/07/25 14:21:01;;;;;;;4.93;1.92;;;;;;;;;;5874031;24;20034;-85
2022/07/25 14:24:14;;;;;;;9.63;1.65;;;;;;;;;;5791413;24;20080;-85
2022/07/25 14:26:58;;;;;;;7.15;1.50;;;;;;;;;;5798984;24;20023;-85
2022/07/25 14:30:00;;;;;;;8.48;1.77;;;;;;;;;;5837856;24;20027;-84
2022/07/25 14:32:32;;;;;;;8.85;1.60;;;;;;;;;;5840587;24;20161;-85
2022/07/25 14:35:26;;;;;;;8.05;1.75;;;;;;;;;;5841068;24;20033;-84
2022/07/25 14:38:26;;;;;;;;;;;;;;;;;;;;;
2022/07/25 14:41:14;;;;;;;;;;;;;;;;;;5877826;24;20487;-85
2022/07/25 14:43:42;;;;;;;11.65;1.60;;;;;;;;;;5919997;24;43604;-87
2022/07/25 14:46:14;;;;;;;8.10;1.45;;;;;;;;;;6000786;23;20047;-85
2022/07/25 14:48:45;;;;;;;8.77;1.20;;;;;;;;;;6064975;23;20032;-85
2022/07/25 14:51:13;;;;;;;7.53;1.00;;;;;;;;;;6064087;23;20817;-85
2022/07/25 14:53:52;;;;;;;6.80;1.05;;;;;;;;;;6065778;23;20045;-84
2022/07/25 14:56:37;;;;;;;6.03;1.10;;;;;;;;;;6065149;23;20019;-85
2022/07/25 14:59:24;;;;;;;6.63;1.23;;;;;;;;;;6063170;23;20126;-85
2022/07/25 15:02:00;;;;;;;2.03;0.82;;;;;;;;;;6064275;23;20019;-84
2022/07/25 15:04:48;;;;;;;5.07;1.27;;;;;;;;;;6064241;23;20141;-87
2022/07/25 15:07:21;;;;;;;5.00;1.10;;;;;;;;;;6062844;23;20027;-86
2022/07/25 15:10:17;;;;;;;11.45;1.10;;;;;;;;;;6047584;23;20087;-85
2022/07/25 15:12:52;;;;;;;5.70;1.35;;;;;;;;;;6062869;23;20019;-85
2022/07/25 15:15:46;;;;;;;2.55;0.98;;;;;;;;;;6062593;23;20027;-86
2022/07/25 15:18:34;;;;;;;7.13;1.73;;;;;;;;;;6052356;23;20105;-86
2022/07/25 15:21:33;;;;;;;6.82;1.65;;;;;;;;;;6064028;23;20821;-85
2022/07/25 15:24:12;;;;;;;5.82;1.30;;;;;;;;;;6062982;23;20031;-86
2022/07/25 15:26:57;;;;;;;2.70;0.98;;;;;;;;;;6063175;23;20030;-86
2022/07/25 15:29:31;;;;;;;5.10;1.17;;;;;;;;;;6062432;23;20015;-86
2022/07/25 15:32:04;;;;;;;11.20;1.63;;;;;;;;;;6062522;23;20548;-85
2022/07/25 15:34:40;;;;;;;9.60;1.50;;;;;;;;;;6061222;23;20023;-85
2022/07/25 15:37:10;;;;;;;3.97;0.93;;;;;;;;;;6063116;23;20047;-85
2022/07/25 15:39:47;;;;;;;7.10;1.42;;;;;;;;;;6062671;23;20070;-85
2022/07/25 15:43:01;;;;;;;5.88;1.48;;;;;;;;;;6062137;23;20497;-85
2022/07/25 15:45:35;;;;;;;;;;;;;;;;;;6063340;23;20083;-86
2022/07/25 15:48:06;;;;;;;5.18;1.20;;;;;;;;;;6035191;23;44828;-85
2022/07/25 15:50:59;;;;;;;7.30;1.17;;;;;;;;;;6060115;23;20030;-86
2022/07/25 15:53:29;;;;;;;7.57;1.23;;;;;;;;;;6061702;23;20126;-85